createdAt,value
2022-11-10T00:04:34.614Z,7.13
2022-11-10T00:09:55.404Z,7.87
2022-11-10T00:15:34.741Z,8.97
2022-11-10T00:20:55.523Z,8.10
2022-11-10T00:26:18.514Z,6.90
2022-11-10T00:31:40.400Z,8.63
2022-11-10T00:37:04.575Z,7.77
2022-11-10T00:42:25.386Z,8.30
2022-11-10T00:47:46.683Z,7.87
2022-11-10T00:53:07.573Z,9.10
2022-11-10T00:58:28.564Z,8.20
2022-11-10T01:03:49.059Z,7.40
2022-11-10T01:09:09.754Z,9.10
2022-11-10T01:14:30.224Z,8.23
2022-11-10T01:19:51.045Z,7.57
2022-11-10T01:25:12.152Z,7.93
2022-11-10T01:30:32.972Z,8.40
2022-11-10T01:35:53.672Z,8.17
2022-11-10T01:41:15.067Z,7.77
2022-11-10T01:46:35.713Z,7.60
2022-11-10T01:51:59.420Z,8.47
2022-11-10T01:57:20.528Z,8.93
2022-11-10T02:02:51.277Z,8.03
2022-11-10T02:08:15.066Z,8.57
2022-11-10T02:13:36.243Z,7.57
2022-11-10T02:18:56.859Z,8.43
2022-11-10T02:24:18.188Z,9.43
2022-11-10T02:29:39.084Z,7.77
2022-11-10T02:34:59.878Z,8.37
2022-11-10T02:40:20.934Z,9.10
2022-11-10T02:45:44.735Z,8.57
2022-11-10T02:51:05.663Z,7.93
2022-11-10T02:56:26.565Z,8.57
2022-11-10T03:01:47.497Z,8.97
2022-11-10T03:07:08.095Z,9.07
2022-11-10T03:12:28.939Z,8.00
2022-11-10T03:17:49.921Z,8.77
2022-11-10T03:23:10.614Z,9.23
2022-11-10T03:28:31.264Z,8.73
2022-11-10T03:33:52.128Z,9.00
2022-11-10T03:39:12.968Z,9.33
2022-11-10T03:44:33.533Z,8.77
2022-11-10T03:49:54.483Z,9.10
2022-11-10T03:55:17.920Z,8.33
2022-11-10T04:00:38.718Z,10.10
2022-11-10T04:06:17.866Z,7.80
2022-11-10T04:12:04.016Z,8.70
2022-11-10T04:17:24.992Z,8.47
2022-11-10T04:23:04.228Z,8.73
2022-11-10T04:28:25.183Z,10.07
2022-11-10T04:33:46.863Z,8.23
2022-11-10T04:39:08.333Z,8.80
2022-11-10T04:44:29.107Z,10.37
2022-11-10T04:49:51.227Z,10.27
2022-11-10T04:55:12.057Z,9.73
2022-11-10T05:00:33.305Z,10.70
2022-11-10T05:05:54.029Z,10.33
2022-11-10T05:11:15.311Z,8.83
2022-11-10T05:16:37.837Z,9.43
2022-11-10T05:21:58.747Z,9.30
2022-11-10T05:27:19.447Z,9.43
2022-11-10T05:32:40.257Z,8.10
2022-11-10T05:38:01.197Z,9.60
2022-11-10T05:43:22.818Z,9.00
2022-11-10T05:48:48.435Z,9.57
2022-11-10T05:54:09.312Z,9.63
2022-11-10T05:59:30.345Z,9.37
2022-11-10T06:04:51.233Z,8.53
2022-11-10T06:10:12.049Z,8.63
2022-11-10T06:15:33.004Z,8.87
2022-11-10T06:20:53.589Z,9.87
2022-11-10T06:26:14.046Z,8.83
2022-11-10T06:31:34.778Z,8.90
2022-11-10T06:36:55.953Z,10.10
2022-11-10T06:42:16.622Z,8.50
2022-11-10T06:47:37.749Z,9.97
2022-11-10T06:53:00.026Z,8.77
2022-11-10T06:58:23.893Z,8.23
2022-11-10T07:04:13.093Z,8.63
2022-11-10T07:09:29.610Z,8.10
2022-11-10T07:14:50.471Z,8.13
2022-11-10T07:20:11.919Z,7.93
2022-11-10T07:25:38.294Z,7.83
2022-11-10T07:31:02.257Z,8.00
2022-11-10T07:36:23.341Z,8.53
2022-11-10T07:41:46.621Z,9.03
2022-11-10T07:47:09.451Z,8.13
2022-11-10T07:52:30.390Z,8.23
2022-11-10T07:57:51.224Z,7.77
2022-11-10T08:03:15.406Z,7.90
2022-11-10T08:08:36.118Z,8.40
2022-11-10T08:13:56.867Z,9.63
2022-11-10T08:19:17.469Z,8.17
2022-11-10T08:24:38.044Z,9.30
2022-11-10T08:29:58.849Z,8.33
2022-11-10T08:35:19.425Z,8.93
2022-11-10T08:40:41.125Z,9.43
2022-11-10T08:46:04.651Z,9.17
2022-11-10T08:51:25.576Z,10.67
2022-11-10T08:56:46.244Z,9.57
2022-11-10T09:02:09.448Z,9.97
2022-11-10T09:07:31.356Z,9.23
2022-11-10T09:12:52.279Z,9.13
2022-11-10T09:18:14.420Z,9.77
2022-11-10T09:23:35.259Z,9.73
2022-11-10T09:28:56.324Z,9.07
2022-11-10T09:34:16.982Z,9.73
2022-11-10T09:39:37.764Z,9.63
2022-11-10T09:45:31.925Z,10.80
2022-11-10T09:50:58.889Z,9.73
2022-11-10T09:56:23.336Z,10.03
2022-11-10T10:01:49.764Z,10.97
2022-11-10T10:07:29.925Z,10.27
2022-11-10T10:13:18.460Z,11.20
2022-11-10T10:19:05.414Z,11.43
2022-11-10T10:24:32.642Z,10.80
2022-11-10T10:29:56.670Z,12.67
2022-11-10T10:35:18.643Z,11.50
2022-11-10T10:40:39.944Z,11.00
2022-11-10T10:46:12.412Z,11.87
2022-11-10T10:51:33.024Z,11.73
2022-11-10T10:57:06.414Z,10.67
2022-11-10T11:02:31.885Z,9.80
2022-11-10T11:07:58.408Z,10.03
2022-11-10T11:13:24.136Z,11.47
2022-11-10T11:18:45.068Z,10.93
2022-11-10T11:24:29.125Z,11.20
2022-11-10T11:30:04.192Z,12.43
2022-11-10T11:35:33.926Z,12.10
2022-11-10T11:41:17.242Z,12.48
2022-11-10T11:46:50.394Z,11.53
2022-11-10T11:52:28.811Z,12.00
2022-11-10T11:58:02.378Z,11.23
2022-11-10T12:03:41.657Z,12.00
2022-11-10T12:09:12.331Z,12.10
2022-11-10T12:14:55.013Z,11.13
2022-11-10T12:20:33.809Z,11.57
2022-11-10T12:26:31.352Z,11.00
2022-11-10T12:32:04.041Z,11.57
2022-11-10T12:37:31.654Z,12.10
2022-11-10T12:43:21.618Z,11.50
2022-11-10T12:48:57.615Z,15.00
2022-11-10T12:54:19.901Z,12.63
2022-11-10T12:59:42.997Z,11.47
2022-11-10T13:05:36.057Z,10.87
2022-11-10T13:10:56.770Z,11.63
2022-11-10T13:16:39.291Z,11.23
2022-11-10T13:22:00.610Z,11.70
2022-11-10T13:27:33.682Z,11.67
2022-11-10T13:32:54.249Z,11.83
2022-11-10T13:38:33.400Z,10.67
2022-11-10T13:43:55.649Z,12.07
2022-11-10T13:49:29.182Z,11.60
2022-11-10T13:54:59.074Z,11.53
2022-11-10T14:00:19.774Z,11.43
2022-11-10T14:05:42.284Z,11.53
2022-11-10T14:11:07.378Z,11.83
2022-11-10T14:16:31.720Z,11.43
2022-11-10T14:21:58.258Z,11.67
2022-11-10T14:27:28.605Z,11.70
2022-11-10T14:33:05.458Z,12.23
2022-11-10T14:38:28.742Z,11.00
2022-11-10T14:44:04.045Z,12.03
2022-11-10T14:49:26.422Z,11.57
2022-11-10T14:54:47.471Z,12.63
2022-11-10T15:00:15.180Z,11.20
2022-11-10T15:05:36.179Z,12.67
2022-11-10T15:10:57.009Z,11.77
2022-11-10T15:16:26.299Z,11.53
2022-11-10T15:21:47.049Z,12.77
2022-11-10T15:27:13.923Z,12.57
2022-11-10T15:32:46.016Z,11.77
2022-11-10T15:38:09.444Z,12.53
2022-11-10T15:43:30.107Z,12.40
2022-11-10T15:48:52.274Z,13.17
2022-11-10T15:54:13.424Z,12.67
2022-11-10T15:59:35.012Z,13.83
2022-11-10T16:04:59.786Z,12.43
2022-11-10T16:10:21.125Z,12.40
2022-11-10T16:15:42.524Z,13.10
2022-11-10T16:21:03.565Z,12.37
2022-11-10T16:26:25.708Z,12.83
2022-11-10T16:31:46.432Z,12.17
2022-11-10T16:37:09.959Z,13.67
2022-11-10T16:42:30.819Z,13.47
2022-11-10T16:47:52.788Z,14.63
2022-11-10T16:53:18.487Z,12.33
2022-11-10T16:58:39.178Z,12.80
2022-11-10T17:04:02.074Z,11.70
2022-11-10T17:09:25.750Z,12.23
2022-11-10T17:14:46.437Z,12.80
2022-11-10T17:20:07.639Z,13.23
2022-11-10T17:25:31.644Z,12.43
2022-11-10T17:30:53.158Z,12.67
2022-11-10T17:36:51.468Z,13.83
2022-11-10T17:42:15.365Z,11.60
2022-11-10T17:47:36.124Z,11.07
2022-11-10T17:52:57.079Z,10.87
2022-11-10T17:58:18.298Z,11.77
2022-11-10T18:03:39.173Z,12.37
2022-11-10T18:08:59.818Z,13.93
2022-11-10T18:14:20.560Z,12.80
2022-11-10T18:19:41.595Z,11.53
2022-11-10T18:25:02.740Z,11.60
2022-11-10T18:30:23.770Z,10.93
2022-11-10T18:35:44.767Z,11.80
2022-11-10T18:41:25.188Z,10.57
2022-11-10T18:46:47.172Z,11.73
2022-11-10T18:52:08.051Z,11.17
2022-11-10T18:57:29.241Z,11.63
2022-11-10T19:02:50.216Z,10.87
2022-11-10T19:08:11.393Z,11.27
2022-11-10T19:13:32.278Z,12.77
2022-11-10T19:18:53.071Z,10.97
2022-11-10T19:24:25.818Z,10.83
2022-11-10T19:29:48.597Z,11.33
2022-11-10T19:35:09.780Z,11.90
2022-11-10T19:40:32.092Z,10.83
2022-11-10T19:45:52.733Z,13.13
2022-11-10T19:51:14.940Z,12.07
2022-11-10T19:56:35.858Z,11.20
2022-11-10T20:01:59.482Z,12.90
2022-11-10T20:07:52.608Z,11.60
2022-11-10T20:13:13.604Z,12.73
2022-11-10T20:18:37.477Z,13.20
2022-11-10T20:23:58.514Z,13.23
2022-11-10T20:29:19.009Z,12.63
2022-11-10T20:34:39.768Z,14.40
2022-11-10T20:40:00.961Z,11.90
2022-11-10T20:45:21.755Z,11.83
2022-11-10T20:50:42.633Z,12.53
2022-11-10T20:56:04.180Z,13.37
2022-11-10T21:01:25.405Z,12.27
2022-11-10T21:06:46.200Z,13.97
2022-11-10T21:12:27.738Z,13.20
2022-11-10T21:23:09.056Z,11.98
2022-11-10T21:28:29.774Z,12.33
2022-11-10T21:33:50.772Z,13.23
2022-11-10T21:39:11.558Z,11.30
2022-11-10T21:44:32.459Z,12.33
2022-11-10T21:49:53.233Z,13.43
2022-11-10T21:55:13.955Z,13.13
2022-11-10T22:00:34.941Z,12.37
2022-11-10T22:05:55.588Z,12.13
2022-11-10T22:11:39.638Z,13.27
2022-11-10T22:17:19.063Z,12.73
2022-11-10T22:22:40.006Z,13.30
2022-11-10T22:28:01.009Z,15.73
2022-11-10T22:33:27.469Z,15.10
2022-11-10T22:38:49.871Z,14.47
2022-11-10T22:44:12.280Z,13.53
2022-11-10T22:49:33.054Z,14.87
2022-11-10T22:54:53.591Z,12.90
2022-11-10T23:00:15.323Z,12.67
2022-11-10T23:05:37.007Z,13.80
2022-11-10T23:11:10.215Z,12.60
2022-11-10T23:16:50.623Z,14.73
2022-11-10T23:22:11.341Z,13.33
2022-11-10T23:27:35.697Z,14.57
2022-11-10T23:32:56.513Z,12.97
2022-11-10T23:38:17.033Z,11.40
2022-11-10T23:43:37.730Z,14.37
2022-11-10T23:48:58.737Z,13.10
2022-11-10T23:54:20.170Z,14.30
2022-11-10T23:59:40.714Z,12.57
